createdAt,value
2019-03-12T00:02:04.077Z,67.80
2019-03-12T00:04:38.978Z,67.80
2019-03-12T00:07:09.759Z,67.00
2019-03-12T00:09:46.633Z,68.10
2019-03-12T00:12:16.607Z,68.20
2019-03-12T00:14:47.680Z,69.40
2019-03-12T00:17:22.423Z,70.80
2019-03-12T00:19:53.055Z,71.90
2019-03-12T00:22:24.065Z,70.70
2019-03-12T00:24:57.160Z,71.40
2019-03-12T00:27:28.042Z,72.60
2019-03-12T00:30:00.674Z,72.60
2019-03-12T00:32:40.169Z,73.60
2019-03-12T00:35:22.168Z,72.80
2019-03-12T00:37:53.113Z,70.90
2019-03-12T00:40:23.803Z,71.40
2019-03-12T00:42:54.550Z,70.90
2019-03-12T00:45:29.192Z,71.90
2019-03-12T00:48:05.555Z,71.30
2019-03-12T00:50:35.381Z,71.40
2019-03-12T00:53:06.216Z,70.40
2019-03-12T00:55:39.591Z,71.70
2019-03-12T00:58:14.185Z,72.50
2019-03-12T01:00:45.072Z,72.50
2019-03-12T01:03:20.813Z,72.50
2019-03-12T01:05:53.890Z,72.30
2019-03-12T01:08:29.617Z,73.70
2019-03-12T01:11:00.613Z,71.50
2019-03-12T01:13:33.656Z,72.00
2019-03-12T01:16:04.539Z,72.80
2019-03-12T01:18:35.031Z,73.90
2019-03-12T01:21:11.922Z,72.90
2019-03-12T01:23:42.557Z,73.80
2019-03-12T01:26:16.246Z,74.50
2019-03-12T01:28:48.943Z,72.50
2019-03-12T01:31:19.962Z,72.10
2019-03-12T01:33:52.690Z,71.20
2019-03-12T01:36:23.322Z,72.00
2019-03-12T01:38:53.926Z,72.20
2019-03-12T01:41:27.450Z,73.10
2019-03-12T01:43:58.031Z,71.90
2019-03-12T01:46:28.620Z,71.80
2019-03-12T01:49:08.083Z,72.30
2019-03-12T01:51:39.304Z,71.90
2019-03-12T01:54:16.770Z,71.60
2019-03-12T01:56:54.847Z,71.60
2019-03-12T01:59:28.022Z,72.10
2019-03-12T02:01:58.574Z,71.70
2019-03-12T02:04:31.319Z,71.60
2019-03-12T02:07:01.864Z,71.70
2019-03-12T02:09:32.645Z,71.40
2019-03-12T02:12:05.856Z,71.90
2019-03-12T02:14:38.424Z,70.70
2019-03-12T02:17:16.186Z,71.50
2019-03-12T02:19:59.735Z,71.30
2019-03-12T02:22:30.307Z,72.20
2019-03-12T02:25:00.899Z,71.30
2019-03-12T02:27:33.835Z,71.70
2019-03-12T02:30:05.203Z,71.10
2019-03-12T02:32:36.633Z,71.60
2019-03-12T02:35:07.890Z,71.10
2019-03-12T02:37:41.178Z,71.30
2019-03-12T02:40:13.764Z,70.20
2019-03-12T02:42:44.497Z,69.90
2019-03-12T02:45:15.977Z,70.80
2019-03-12T02:47:54.993Z,69.50
2019-03-12T02:50:33.265Z,70.60
2019-03-12T02:53:04.812Z,69.20
2019-03-12T02:55:36.103Z,70.80
2019-03-12T02:58:10.499Z,70.20
2019-03-12T03:00:41.569Z,69.80
2019-03-12T03:03:12.566Z,71.50
2019-03-12T03:05:55.699Z,70.30
2019-03-12T03:08:31.494Z,70.10
2019-03-12T03:11:02.195Z,70.80
2019-03-12T03:13:35.660Z,70.50
2019-03-12T03:16:06.354Z,69.70
2019-03-12T03:18:36.932Z,70.80
2019-03-12T03:21:12.445Z,69.20
2019-03-12T03:23:43.455Z,70.50
2019-03-12T03:26:14.642Z,70.80
2019-03-12T03:28:46.637Z,70.50
2019-03-12T03:31:17.554Z,69.70
2019-03-12T03:33:48.712Z,70.00
2019-03-12T03:36:21.237Z,71.60
2019-03-12T03:38:51.805Z,71.10
2019-03-12T03:41:22.467Z,70.40
2019-03-12T03:43:55.911Z,71.00
2019-03-12T03:46:26.480Z,70.60
2019-03-12T03:49:01.424Z,69.70
2019-03-12T03:51:32.337Z,68.30
2019-03-12T03:54:11.134Z,69.00
2019-03-12T03:56:42.506Z,69.10
2019-03-12T03:59:13.676Z,68.40
2019-03-12T04:01:53.171Z,68.50
2019-03-12T04:04:23.593Z,68.40
2019-03-12T04:06:57.382Z,67.50
2019-03-12T04:09:28.454Z,68.20
2019-03-12T04:11:59.229Z,67.40
2019-03-12T04:14:37.496Z,68.20
2019-03-12T04:17:17.089Z,67.40
2019-03-12T04:19:47.826Z,68.00
2019-03-12T04:22:18.894Z,67.50
2019-03-12T04:24:49.752Z,67.70
2019-03-12T04:27:20.453Z,67.00
2019-03-12T04:29:50.964Z,67.10
2019-03-12T04:32:23.108Z,67.20
2019-03-12T04:34:53.841Z,67.70
2019-03-12T04:37:24.871Z,69.20
2019-03-12T04:39:58.827Z,68.20
2019-03-12T04:42:29.507Z,68.80
2019-03-12T04:44:59.939Z,68.80
2019-03-12T04:47:35.647Z,69.50
2019-03-12T04:50:07.110Z,69.50
2019-03-12T04:52:44.167Z,70.30
2019-03-12T04:55:17.097Z,72.20
2019-03-12T04:57:55.587Z,70.60
2019-03-12T05:00:26.703Z,69.70
2019-03-12T05:03:01.527Z,69.70
2019-03-12T05:05:33.320Z,70.00
2019-03-12T05:08:04.956Z,69.90
2019-03-12T05:10:35.954Z,69.50
2019-03-12T05:13:06.952Z,69.20
2019-03-12T05:15:45.438Z,69.80
2019-03-12T05:18:19.815Z,69.00
2019-03-12T05:20:51.895Z,68.50
2019-03-12T05:23:25.204Z,69.60
2019-03-12T05:25:59.109Z,68.80
2019-03-12T05:28:29.543Z,69.40
2019-03-12T05:31:00.356Z,70.70
2019-03-12T05:33:31.851Z,69.80
2019-03-12T05:36:05.326Z,68.90
2019-03-12T05:38:35.822Z,69.80
2019-03-12T05:41:06.657Z,69.60
2019-03-12T05:43:37.668Z,68.70
2019-03-12T05:46:08.194Z,68.20
2019-03-12T05:48:39.217Z,69.30
2019-03-12T05:51:10.084Z,68.70
2019-03-12T05:53:52.306Z,69.00
2019-03-12T05:56:26.634Z,68.60
2019-03-12T05:59:00.462Z,68.40
2019-03-12T06:01:32.529Z,68.10
2019-03-12T06:04:03.804Z,68.30
2019-03-12T06:06:41.879Z,67.40
2019-03-12T06:09:12.723Z,66.90
2019-03-12T06:11:44.513Z,66.80
2019-03-12T06:14:15.708Z,67.60
2019-03-12T06:16:46.641Z,67.40
2019-03-12T06:19:25.606Z,67.80
2019-03-12T06:21:59.687Z,68.30
2019-03-12T06:24:30.450Z,66.90
2019-03-12T06:27:00.863Z,66.80
2019-03-12T06:29:31.727Z,67.10
2019-03-12T06:32:34.820Z,67.30
2019-03-12T06:35:33.850Z,67.70
2019-03-12T06:38:26.384Z,69.10
2019-03-12T06:41:01.864Z,68.20
2019-03-12T06:43:42.612Z,67.80
2019-03-12T06:46:29.807Z,67.30
2019-03-12T06:49:22.222Z,67.20
2019-03-12T06:52:10.957Z,67.40
2019-03-12T06:55:13.209Z,67.20
2019-03-12T06:58:31.433Z,65.90
2019-03-12T07:01:33.598Z,65.60
2019-03-12T07:04:12.485Z,66.50
2019-03-12T07:07:17.129Z,65.00
2019-03-12T07:10:04.681Z,66.20
2019-03-12T07:12:43.824Z,64.70
2019-03-12T07:15:32.535Z,65.70
2019-03-12T07:18:17.566Z,67.70
2019-03-12T07:21:08.585Z,65.90
2019-03-12T07:23:58.355Z,67.10
2019-03-12T07:26:50.589Z,64.90
2019-03-12T07:29:34.836Z,64.90
2019-03-12T07:32:31.636Z,67.20
2019-03-12T07:35:10.377Z,65.90
2019-03-12T07:37:51.383Z,65.40
2019-03-12T07:40:38.405Z,64.30
2019-03-12T07:43:19.126Z,65.00
2019-03-12T07:46:08.959Z,66.40
2019-03-12T07:48:45.949Z,65.40
2019-03-12T07:51:35.347Z,66.10
2019-03-12T07:54:28.254Z,64.70
2019-03-12T07:57:27.473Z,65.80
2019-03-12T08:00:06.289Z,64.10
2019-03-12T08:02:57.812Z,65.50
2019-03-12T08:05:53.280Z,64.00
2019-03-12T08:08:55.786Z,63.90
2019-03-12T08:11:37.855Z,63.80
2019-03-12T08:14:19.325Z,65.80
2019-03-12T08:17:17.801Z,65.30
2019-03-12T08:19:57.535Z,67.80
2019-03-12T08:22:46.305Z,69.10
2019-03-12T08:25:28.759Z,68.20
2019-03-12T08:28:24.105Z,67.80
2019-03-12T08:31:10.096Z,69.00
2019-03-12T08:33:50.783Z,69.20
2019-03-12T08:36:55.816Z,69.90
2019-03-12T08:39:49.945Z,69.70
2019-03-12T08:42:33.434Z,68.40
2019-03-12T08:45:35.751Z,67.70
2019-03-12T08:48:13.603Z,69.10
2019-03-12T08:51:08.592Z,67.20
2019-03-12T08:54:02.503Z,65.80
2019-03-12T08:56:55.323Z,64.80
2019-03-12T09:00:00.415Z,65.20
2019-03-12T09:02:41.860Z,65.00
2019-03-12T09:05:26.170Z,62.50
2019-03-12T09:08:13.963Z,62.10
2019-03-12T09:11:12.559Z,60.70
2019-03-12T09:14:10.088Z,61.00
2019-03-12T09:17:05.873Z,61.50
2019-03-12T09:20:08.428Z,60.60
2019-03-12T09:23:04.860Z,61.00
2019-03-12T09:26:00.539Z,61.40
2019-03-12T09:29:17.687Z,61.50
2019-03-12T09:32:23.660Z,60.70
2019-03-12T09:35:05.902Z,61.30
2019-03-12T09:37:54.441Z,61.40
2019-03-12T09:40:45.043Z,63.30
2019-03-12T09:43:42.249Z,64.10
2019-03-12T09:46:28.993Z,64.40
2019-03-12T09:49:21.716Z,64.10
2019-03-12T09:52:19.504Z,64.10
2019-03-12T09:55:24.079Z,64.40
2019-03-12T09:58:25.306Z,63.70
2019-03-12T10:01:23.192Z,64.70
2019-03-12T10:04:18.008Z,64.40
2019-03-12T10:07:09.130Z,62.30
2019-03-12T10:10:06.678Z,61.40
2019-03-12T10:12:58.334Z,61.50
2019-03-12T10:16:02.803Z,60.40
2019-03-12T10:18:54.302Z,58.10
2019-03-12T10:21:50.982Z,57.70
2019-03-12T10:24:48.164Z,57.50
2019-03-12T10:28:04.476Z,55.30
2019-03-12T10:31:15.592Z,55.40
2019-03-12T10:34:11.174Z,55.40
2019-03-12T10:37:12.370Z,55.70
2019-03-12T10:40:23.556Z,55.00
2019-03-12T10:43:39.968Z,54.80
2019-03-12T10:46:46.934Z,55.40
2019-03-12T10:49:17.669Z,56.80
2019-03-12T10:51:48.910Z,56.80
2019-03-12T10:54:20.078Z,56.50
2019-03-12T10:56:53.328Z,55.80
2019-03-12T10:59:28.007Z,58.20
2019-03-12T11:01:59.638Z,54.50
2019-03-12T11:04:31.881Z,55.20
2019-03-12T11:07:15.585Z,54.90
2019-03-12T11:09:42.363Z,55.50
2019-03-12T11:12:25.263Z,55.40
2019-03-12T11:15:05.049Z,55.40
2019-03-12T11:17:49.836Z,55.40
2019-03-12T11:20:28.211Z,55.50
2019-03-12T11:23:02.543Z,55.30
2019-03-12T11:25:35.179Z,55.90
2019-03-12T11:28:06.901Z,55.30
2019-03-12T11:30:43.337Z,55.90
2019-03-12T11:33:17.511Z,57.40
2019-03-12T11:35:50.190Z,56.10
2019-03-12T11:38:21.198Z,57.00
2019-03-12T11:40:52.402Z,56.00
2019-03-12T11:43:31.707Z,56.00
2019-03-12T11:46:12.554Z,56.40
2019-03-12T11:48:49.819Z,53.30
2019-03-12T11:51:27.870Z,52.00
2019-03-12T11:54:08.844Z,53.00
2019-03-12T11:56:45.193Z,53.40
2019-03-12T11:59:17.373Z,52.90
2019-03-12T12:01:53.703Z,53.70
2019-03-12T12:04:25.088Z,51.20
2019-03-12T12:06:55.707Z,52.40
2019-03-12T12:09:34.685Z,49.60
2019-03-12T12:12:17.290Z,49.00
2019-03-12T12:14:49.793Z,47.90
2019-03-12T12:17:20.904Z,47.20
2019-03-12T12:19:55.592Z,48.40
2019-03-12T12:22:26.727Z,48.60
2019-03-12T12:24:58.359Z,49.60
2019-03-12T12:27:29.124Z,49.10
2019-03-12T12:29:59.990Z,50.80
2019-03-12T12:32:31.324Z,45.80
2019-03-12T12:35:05.766Z,41.50
2019-03-12T12:37:37.450Z,38.90
2019-03-12T12:40:10.642Z,36.90
2019-03-12T12:42:41.934Z,33.20
2019-03-12T12:45:15.690Z,32.70
2019-03-12T12:47:48.062Z,33.50
2019-03-12T12:50:21.229Z,34.10
2019-03-12T12:52:52.187Z,31.90
2019-03-12T12:55:22.967Z,31.60
2019-03-12T12:57:56.991Z,31.80
2019-03-12T13:00:32.817Z,31.10
2019-03-12T13:03:04.382Z,32.80
2019-03-12T13:05:44.088Z,34.60
2019-03-12T13:08:15.097Z,37.00
2019-03-12T13:10:49.655Z,39.00
2019-03-12T13:13:22.250Z,39.20
2019-03-12T13:16:00.398Z,42.20
2019-03-12T13:18:31.343Z,42.10
2019-03-12T13:21:02.964Z,43.80
2019-03-12T13:23:36.132Z,42.90
2019-03-12T13:26:14.595Z,42.80
2019-03-12T13:28:52.886Z,41.70
2019-03-12T13:31:26.157Z,42.30
2019-03-12T13:33:56.896Z,42.20
2019-03-12T13:36:29.089Z,43.00
2019-03-12T13:38:59.777Z,43.20
2019-03-12T13:41:30.480Z,42.10
2019-03-12T13:44:03.121Z,42.10
2019-03-12T13:46:33.781Z,41.70
2019-03-12T13:49:04.409Z,41.60
2019-03-12T13:51:39.687Z,39.60
2019-03-12T13:54:11.427Z,38.10
2019-03-12T13:56:43.343Z,37.10
2019-03-12T13:59:15.439Z,39.00
2019-03-12T14:01:47.532Z,36.90
2019-03-12T14:04:18.769Z,38.50
2019-03-12T14:06:53.661Z,40.70
2019-03-12T14:09:24.594Z,41.90
2019-03-12T14:11:59.058Z,39.20
2019-03-12T14:14:28.085Z,39.90
2019-03-12T14:17:01.311Z,39.40
2019-03-12T14:19:42.058Z,37.70
2019-03-12T14:22:20.577Z,37.00
2019-03-12T14:24:58.384Z,35.20
2019-03-12T14:27:29.777Z,34.60
2019-03-12T14:30:00.783Z,35.90
2019-03-12T14:32:33.541Z,36.70
2019-03-12T14:35:05.495Z,37.90
2019-03-12T14:37:36.741Z,39.60
2019-03-12T14:40:09.854Z,39.20
2019-03-12T14:42:40.474Z,40.00
2019-03-12T14:45:12.893Z,40.90
2019-03-12T14:47:43.676Z,42.20
2019-03-12T14:50:14.239Z,41.40
2019-03-12T14:52:51.561Z,41.60
2019-03-12T14:55:22.282Z,41.90
2019-03-12T14:58:02.213Z,42.70
2019-03-12T15:00:33.024Z,42.40
2019-03-12T15:03:04.797Z,40.80
2019-03-12T15:05:35.514Z,40.80
2019-03-12T15:08:15.412Z,40.00
2019-03-12T15:10:51.027Z,40.00
2019-03-12T15:13:26.341Z,39.90
2019-03-12T15:15:56.885Z,39.70
2019-03-12T15:18:30.623Z,38.90
2019-03-12T15:21:03.192Z,39.60
2019-03-12T15:23:33.770Z,40.00
2019-03-12T15:26:04.638Z,40.50
2019-03-12T15:28:40.564Z,40.80
2019-03-12T15:31:22.966Z,40.60
2019-03-12T15:33:55.825Z,38.50
2019-03-12T15:36:27.654Z,39.10
2019-03-12T15:39:01.360Z,35.90
2019-03-12T15:41:34.040Z,37.50
2019-03-12T15:44:05.028Z,38.60
2019-03-12T15:46:35.564Z,38.40
2019-03-12T15:49:06.506Z,39.30
2019-03-12T15:51:38.048Z,40.60
2019-03-12T15:54:09.002Z,39.80
2019-03-12T15:56:39.936Z,40.70
2019-03-12T15:59:12.883Z,40.90
2019-03-12T16:01:44.128Z,41.30
2019-03-12T16:04:15.393Z,41.00
2019-03-12T16:06:45.967Z,41.00
2019-03-12T16:09:16.739Z,41.00
2019-03-12T16:11:47.521Z,40.60
2019-03-12T16:14:18.390Z,39.40
2019-03-12T16:16:49.774Z,40.40
2019-03-12T16:19:20.373Z,40.10
2019-03-12T16:21:51.608Z,40.40
2019-03-12T16:24:22.497Z,39.50
2019-03-12T16:26:52.986Z,39.80
2019-03-12T16:29:23.786Z,40.40
2019-03-12T16:31:56.166Z,39.50
2019-03-12T16:34:27.353Z,39.50
2019-03-12T16:36:58.686Z,39.90
2019-03-12T16:39:29.323Z,41.40
2019-03-12T16:42:00.067Z,40.70
2019-03-12T16:44:30.615Z,40.40
2019-03-12T16:47:04.279Z,41.30
2019-03-12T16:49:34.831Z,40.30
2019-03-12T16:52:06.253Z,40.40
2019-03-12T16:54:38.292Z,41.20
2019-03-12T16:57:11.034Z,40.60
2019-03-12T16:59:46.648Z,40.50
2019-03-12T17:02:21.760Z,40.60
2019-03-12T17:04:53.332Z,41.30
2019-03-12T17:07:28.830Z,41.60
2019-03-12T17:09:58.656Z,41.30
2019-03-12T17:12:32.558Z,41.30
2019-03-12T17:15:03.188Z,41.90
2019-03-12T17:17:35.296Z,42.90
2019-03-12T17:20:13.913Z,44.10
2019-03-12T17:22:43.865Z,44.30
2019-03-12T17:25:15.214Z,46.20
2019-03-12T17:27:46.167Z,47.50
2019-03-12T17:30:18.334Z,48.80
2019-03-12T17:32:48.978Z,49.50
2019-03-12T17:35:25.089Z,49.60
2019-03-12T17:37:59.944Z,50.60
2019-03-12T17:40:30.597Z,51.00
2019-03-12T17:43:01.529Z,51.50
2019-03-12T17:45:32.677Z,51.00
2019-03-12T17:48:03.319Z,51.00
2019-03-12T17:50:34.107Z,51.40
2019-03-12T17:53:04.766Z,51.20
2019-03-12T17:55:35.484Z,52.00
2019-03-12T17:58:08.118Z,52.70
2019-03-12T18:00:40.300Z,51.40
2019-03-12T18:03:13.572Z,52.40
2019-03-12T18:05:47.185Z,51.10
2019-03-12T18:08:17.805Z,52.80
2019-03-12T18:10:49.513Z,53.20
2019-03-12T18:13:20.093Z,53.20
2019-03-12T18:15:51.254Z,52.90
2019-03-12T18:18:22.482Z,52.40
2019-03-12T18:20:54.224Z,51.70
2019-03-12T18:23:25.235Z,51.20
2019-03-12T18:25:55.881Z,52.90
2019-03-12T18:28:26.428Z,53.10
2019-03-12T18:30:57.161Z,53.10
2019-03-12T18:33:27.817Z,52.90
2019-03-12T18:35:58.473Z,52.90
2019-03-12T18:38:29.417Z,54.20
2019-03-12T18:41:00.791Z,53.40
2019-03-12T18:43:31.431Z,53.10
2019-03-12T18:46:02.890Z,53.10
2019-03-12T18:48:33.869Z,52.10
2019-03-12T18:51:05.432Z,52.40
2019-03-12T18:53:36.928Z,52.50
2019-03-12T18:56:10.536Z,52.30
2019-03-12T18:58:41.958Z,52.20
2019-03-12T19:01:17.216Z,53.20
2019-03-12T19:03:47.802Z,53.50
2019-03-12T19:06:20.338Z,53.40
2019-03-12T19:08:56.607Z,53.60
2019-03-12T19:11:27.842Z,53.60
2019-03-12T19:14:02.382Z,54.10
2019-03-12T19:16:33.070Z,53.00
2019-03-12T19:19:04.020Z,53.10
2019-03-12T19:21:36.473Z,53.30
2019-03-12T19:24:07.206Z,53.50
2019-03-12T19:26:38.058Z,54.00
2019-03-12T19:29:11.511Z,53.40
2019-03-12T19:31:50.220Z,53.40
2019-03-12T19:34:32.528Z,54.10
2019-03-12T19:37:07.793Z,54.00
2019-03-12T19:39:38.751Z,54.00
2019-03-12T19:42:09.767Z,53.40
2019-03-12T19:44:40.257Z,53.30
2019-03-12T19:47:10.913Z,52.20
2019-03-12T19:49:41.585Z,52.70
2019-03-12T19:52:12.533Z,52.30
2019-03-12T19:54:43.399Z,52.20
2019-03-12T19:57:14.053Z,51.80
2019-03-12T19:59:44.740Z,52.20
2019-03-12T20:02:17.844Z,52.80
2019-03-12T20:04:48.532Z,52.80
2019-03-12T20:07:19.185Z,52.60
2019-03-12T20:10:11.902Z,52.90
2019-03-12T20:13:20.141Z,53.40
2019-03-12T20:16:36.903Z,53.20
2019-03-12T20:19:55.918Z,53.10
2019-03-12T20:23:09.171Z,52.90
2019-03-12T20:26:47.503Z,52.80
2019-03-12T20:29:53.853Z,53.20
2019-03-12T20:33:20.083Z,52.70
2019-03-12T20:36:41.825Z,52.60
2019-03-12T20:40:00.929Z,52.70
2019-03-12T20:43:06.827Z,52.70
2019-03-12T20:46:32.367Z,53.10
2019-03-12T20:49:42.222Z,54.20
2019-03-12T20:52:49.194Z,53.50
2019-03-12T20:55:55.038Z,52.20
2019-03-12T20:59:06.013Z,53.10
2019-03-12T21:02:12.727Z,53.50
2019-03-12T21:05:28.878Z,52.70
2019-03-12T21:08:46.631Z,53.40
2019-03-12T21:12:12.367Z,52.30
2019-03-12T21:15:04.103Z,51.50
2019-03-12T21:18:17.543Z,51.10
2019-03-12T21:24:28.571Z,50.20
2019-03-12T21:27:57.267Z,50.30
2019-03-12T21:30:28.785Z,50.40
2019-03-12T21:32:59.492Z,49.90
2019-03-12T21:35:30.070Z,51.50
2019-03-12T21:38:00.720Z,50.00
2019-03-12T21:40:31.604Z,48.90
2019-03-12T21:43:02.469Z,50.20
2019-03-12T21:45:33.494Z,49.80
2019-03-12T21:48:04.482Z,49.80
2019-03-12T21:50:34.908Z,49.60
2019-03-12T21:53:06.021Z,49.50
2019-03-12T21:55:37.906Z,50.70
2019-03-12T21:58:08.865Z,50.40
2019-03-12T22:00:39.458Z,48.60
2019-03-12T22:03:10.391Z,47.00
2019-03-12T22:05:41.066Z,48.60
2019-03-12T22:08:11.688Z,49.30
2019-03-12T22:10:43.259Z,48.90
2019-03-12T22:13:13.846Z,49.80
2019-03-12T22:15:44.821Z,49.70
2019-03-12T22:18:15.425Z,50.70
2019-03-12T22:20:45.959Z,50.40
2019-03-12T22:23:20.132Z,50.90
2019-03-12T22:25:50.746Z,49.50
2019-03-12T22:28:21.342Z,49.20
2019-03-12T22:30:52.353Z,50.80
2019-03-12T22:33:23.305Z,47.90
2019-03-12T22:35:53.930Z,50.10
2019-03-12T22:38:24.826Z,48.50
2019-03-12T22:40:55.460Z,47.80
2019-03-12T22:43:26.187Z,47.40
2019-03-12T22:45:56.873Z,48.90
2019-03-12T22:48:28.257Z,49.80
2019-03-12T22:50:58.825Z,50.40
2019-03-12T22:53:29.744Z,49.60
2019-03-12T22:56:00.466Z,50.30
2019-03-12T22:58:35.852Z,50.30
2019-03-12T23:01:09.308Z,49.60
2019-03-12T23:03:40.003Z,49.00
2019-03-12T23:06:12.494Z,49.30
2019-03-12T23:08:43.576Z,49.20
2019-03-12T23:11:14.260Z,49.10
2019-03-12T23:13:47.712Z,47.70
2019-03-12T23:16:19.411Z,48.40
2019-03-12T23:18:50.723Z,48.60
2019-03-12T23:21:21.552Z,48.90
2019-03-12T23:23:52.678Z,48.50
2019-03-12T23:26:23.226Z,48.90
2019-03-12T23:28:53.929Z,50.00
2019-03-12T23:31:25.586Z,49.70
2019-03-12T23:33:56.221Z,48.90
2019-03-12T23:36:27.179Z,50.30
2019-03-12T23:38:57.952Z,50.50
2019-03-12T23:41:28.484Z,50.10
2019-03-12T23:43:59.590Z,49.80
2019-03-12T23:46:30.064Z,49.90
2019-03-12T23:49:00.632Z,49.10
2019-03-12T23:51:31.167Z,49.60
2019-03-12T23:54:02.968Z,48.40
2019-03-12T23:56:39.118Z,49.60
2019-03-12T23:59:15.184Z,49.60
